• Join FlightAware (Why Join?)
  • Login
  • US Flag 
03:36AM EDT


 

Airport Tracker/Info


-or-


 

Live Flight TrackerFlight Track Log ✈ N92PS ✈ 12-Sep-2013 ✈ KPIT - 9N3

Flight Track Log - Related Links

Times and Time Zones

All times are in EDT time to prevent confusion due to time zone crossing. See the N92PS flight status page for this flight to view local times or setup timezone preferences in your user account.

Time Position Orientation Groundspeed Altitude Reporting Facility
EDT Latitude Longitude Course Direction KTS MPH feet Rate Location/Type
12:36PM 40.6147 -80.1728 71° East 161 185 5,600  Level Cleveland Center
12:38PM 40.5981 -79.8329 71° East  Level Estimated
12:38PM 40.5968 -80.0767 104° East  Level FlightAware Approximate
12:38PM 40.6769 -80.0767 104° East 182 209 7,500  Level Cleveland Center
12:39PM 40.6153 -79.7659 71° East  Level FlightAware Approximate
12:39PM 40.7100 -80.0353 43° Northeast 177 204 8,400  Level Cleveland Center
12:40PM 40.6324 -79.6989 71° East  Level FlightAware Approximate
12:40PM 40.7431 -79.9911 45° Northeast 172 198 9,600  Level Cleveland Center
12:41PM 40.6495 -79.6319 71° East  Level FlightAware Approximate
12:41PM 40.7783 -79.9553 38° Northeast 167 192 10,300  Level Cleveland Center
12:42PM 40.8156 -79.9111 42° Northeast 162 186 11,100 300 Climbing Cleveland Center
12:43PM 40.8569 -79.8583 44° Northeast 169 194 11,000 -60 Descending Cleveland Center
12:44PM 40.9025 -79.8003 44° Northeast 197 227 11,000  Level Cleveland Center
12:45PM 40.9481 -79.7447 43° Northeast 213 245 11,100  Climbing Cleveland Center
12:46PM 40.9933 -79.6919 41° Northeast 219 252 11,000 -60 Descending Cleveland Center
12:47PM 41.0367 -79.6361 44° Northeast 213 245 11,000  Level Cleveland Center
12:48PM 41.0800 -79.5722 48° Northeast 213 245 11,100  Climbing Cleveland Center
12:49PM 41.1211 -79.5108 48° Northeast 219 252 11,000 -60 Descending Cleveland Center
12:50PM 41.1622 -79.4467 50° Northeast 219 252 11,000  Level Cleveland Center
12:51PM 41.2033 -79.3936 44° Northeast 219 252 11,000  Level Cleveland Center
12:56PM 41.4340 -79.0830 44° Northeast 212 244 11,200  Climbing FlightAware
12:57PM 41.4560 -79.0500 48° Northeast 218 251 11,100 -120 Descending FlightAware
12:58PM 41.4850 -79.0080 47° Northeast 219 252 11,100  Level FlightAware
12:58PM 41.4990 -78.9780 58° Northeast 218 251 11,100  Level FlightAware
12:59PM 41.5040 -78.9320 82° East 216 249 11,100  Level FlightAware
12:59PM 41.5060 -78.8850 87° East 219 252 11,100  Level FlightAware
01:00PM 41.5070 -78.8390 88° East 215 247 11,100  Level FlightAware
01:00PM 41.5120 -78.7940 82° East 212 244 11,100  Level FlightAware
01:01PM 41.5210 -78.7460 76° East 216 249 11,100  Level FlightAware
01:02PM 41.5310 -78.6980 74° East 212 244 11,100  Level FlightAware
01:02PM 41.5420 -78.6480 74° East 209 241 11,100  Level FlightAware
01:03PM 41.5490 -78.6050 78° East 208 239 11,100  Level FlightAware
01:03PM 41.5570 -78.5660 75° East 216 249 11,100 60 Level FlightAware
01:04PM 41.5660 -78.5220 75° East 215 247 11,200  Climbing FlightAware
01:05PM 41.5740 -78.4750 77° East 221 254 11,100  Descending FlightAware
01:05PM 41.5790 -78.4500 75° East 216 249 11,200 -180 Climbing FlightAware
01:05PM 41.5940 -78.4130 62° Northeast 229 264 11,000 -240 Descending FlightAware
01:06PM 41.6130 -78.3810 52° Northeast 215 247 11,000  Level FlightAware
01:07PM 41.6260 -78.3390 67° East 213 245 11,000 60 Level FlightAware
01:07PM 41.6370 -78.3020 68° East 206 237 11,100 60 Climbing FlightAware
01:08PM 41.6480 -78.2600 71° East 215 247 11,100  Level FlightAware
01:08PM 41.6650 -78.2120 65° Northeast 219 252 11,100 -120 Level FlightAware
01:09PM 41.6820 -78.1690 62° Northeast 224 258 11,000  Descending FlightAware
01:09PM 41.7000 -78.1270 60° Northeast 216 249 11,100 60 Climbing FlightAware
01:10PM 41.7150 -78.0870 63° Northeast 220 253 11,100 -120 Level FlightAware
01:11PM 41.7360 -78.0240 66° East 220 253 11,000 -120 Descending FlightAware
01:12PM 41.7500 -77.9850 64° Northeast 220 253 11,000  Level FlightAware
01:12PM 41.7620 -77.9500 65° Northeast 220 253 11,000 60 Level FlightAware
01:13PM 41.7830 -77.8700 71° East 219 252 11,100 60 Climbing FlightAware
01:14PM 41.7990 -77.8230 65° Northeast 219 252 11,100  Level FlightAware
01:14PM 41.8140 -77.7800 65° Northeast 219 252 11,100  Level FlightAware
01:15PM 41.8300 -77.7300 67° East 222 255 11,100  Level FlightAware
01:15PM 41.8410 -77.6900 70° East 222 255 11,100  Level FlightAware
01:16PM 41.8380 -77.6410 95° East 216 249 11,100 60 Level FlightAware
01:17PM 41.8300 -77.5860 101° East 203 234 11,200 60 Climbing FlightAware
01:17PM 41.8260 -77.5530 99° East 205 236 11,200  Level FlightAware
01:18PM 41.8200 -77.5130 101° East 205 236 11,200 -120 Level FlightAware
01:18PM 41.8140 -77.4570 98° East 209 241 11,100  Descending FlightAware
01:19PM 41.8090 -77.4090 98° East 206 237 11,200 60 Climbing FlightAware
01:20PM 41.8050 -77.3670 97° East 206 237 11,200  Level FlightAware
01:20PM 41.8000 -77.3270 100° East 206 237 11,200  Level FlightAware
01:21PM 41.7960 -77.2870 98° East 206 237 11,200 -120 Level FlightAware
01:22PM 41.7881 -77.2167 98° East 207 238 11,100 -120 Descending New York Center
01:23PM 41.7778 -77.1378 100° East 202 232 11,000 -60 Descending New York Center
01:24PM 41.7656 -77.0531 101° East 202 232 11,000  Level New York Center
01:25PM 41.7569 -76.9772 99° East 202 232 11,000  Level New York Center
01:26PM 41.7444 -76.9008 102° East 202 232 11,000 -180 Level New York Center
01:27PM 41.7339 -76.8222 100° East 202 232 10,700 -600 Descending New York Center
01:28PM 41.7194 -76.7375 103° East 208 239 9,900 -840 Descending New York Center
01:29PM 41.7044 -76.6611 105° East 232 267 9,100 -480 Descending New York Center
01:30PM 41.6900 -76.5708 102° East 225 259 9,000 -60 Descending New York Center
01:31PM 41.6814 -76.4950 99° East 213 245 9,000 -420 Level New York Center
01:32PM 41.6725 -76.4194 99° East 207 238 8,200 -1,080 Descending New York Center
01:33PM 41.6528 -76.3483 110° East 213 245 6,900 -1,320 Descending New York Center
01:34PM 41.6164 -76.2786 125° Southeast 219 252 5,600 -1,380 Descending New York Center
01:35PM 41.5844 -76.2067 121° Southeast 219 252 4,200 -840 Descending New York Center
01:36PM 41.5581 -76.1464 120° Southeast 204 235 4,000 -120 Descending New York Center
01:37PM 41.5289 -76.0969 128° Southeast 180 207 4,000  Level New York Center
01:38PM 41.5017 -76.0586 133° Southeast 161 185 4,000  Level New York Center
01:39PM 41.4764 -76.0153 128° Southeast 161 185 4,100  Climbing New York Center
01:40PM 41.4489 -75.9769 134° Southeast 150 173 4,100  Level New York Center
01:41PM 41.4553 -75.9250 81° East 137 158 4,100  Level New York Center
01:42PM 41.4803 -75.8797 54° Northeast 126 145 4,200 -180 Climbing New York Center
01:43PM 41.5092 -75.8378 47° Northeast 134 154 3,800 -600 Descending New York Center
01:44PM 41.5483 -75.7992 36° Northeast 151 174 3,000 -840 Descending New York Center